Time;durP1;ratioP1;P1;durP2;ratioP2;P2;SDS_P1;SDS_P2;PMS_P1;PMS_P2;Temp;Humidity;BMP_temperature;BMP_pressure;BME280_temperature;BME280_humidity;BME280_pressure;Samples;Min_cycle;Max_cycle;Signal;HPM_P1;HPM_P2
2022/11/22 00:00:18;;;;;;;19.92;9.18;;;;;;;-1.92;63.49;99840.00;6100611;23;20483;-80
2022/11/22 00:02:46;;;;;;;20.25;9.25;;;;;;;-2.32;63.26;99821.34;6077955;23;20024;-80
2022/11/22 00:05:12;;;;;;;20.55;9.30;;;;;;;-2.44;63.67;99827.63;6100357;23;20122;-79
2022/11/22 00:07:38;;;;;;;22.88;10.05;;;;;;;-2.38;63.08;99854.19;6098877;23;20042;-80
2022/11/22 00:10:07;;;;;;;19.58;9.02;;;;;;;-2.39;64.03;99829.50;6101392;23;20463;-80
2022/11/22 00:12:33;;;;;;;21.80;8.52;;;;;;;-2.27;64.20;99850.44;6075888;23;20018;-76
2022/11/22 00:14:59;;;;;;;20.67;9.02;;;;;;;-2.31;63.25;99871.50;6051720;23;20029;-79
2022/11/22 00:17:25;;;;;;;22.02;8.65;;;;;;;-2.35;63.74;99859.44;6051390;23;20380;-79
2022/11/22 00:19:54;;;;;;;21.05;9.93;;;;;;;-2.66;64.12;99794.34;6104668;23;20091;-77
2022/11/22 00:22:20;;;;;;;19.00;8.98;;;;;;;-2.63;64.43;99797.91;6109536;23;20022;-77
2022/11/22 00:24:46;;;;;;;18.80;8.43;;;;;;;-2.69;64.10;99806.97;6111242;23;20021;-78
2022/11/22 00:27:12;;;;;;;21.17;8.70;;;;;;;-2.29;64.72;99842.72;6085503;23;20018;-76
2022/11/22 00:29:38;;;;;;;20.75;8.70;;;;;;;-2.18;65.07;99842.31;6107252;23;20033;-80
2022/11/22 00:32:04;;;;;;;18.52;9.32;;;;;;;-2.10;64.79;99840.97;6100308;23;20025;-81
2022/11/22 00:34:31;;;;;;;19.05;8.90;;;;;;;-2.16;64.81;99812.66;6100458;23;20046;-79
2022/11/22 00:36:57;;;;;;;20.23;9.10;;;;;;;-2.16;64.51;99793.13;6099075;23;20041;-78
2022/11/22 00:39:23;;;;;;;21.88;9.57;;;;;;;-1.89;64.54;99823.16;6076300;23;20346;-80
2022/11/22 00:41:49;;;;;;;21.20;8.40;;;;;;;-1.98;63.48;99832.97;6079474;23;20018;-79
2022/11/22 00:44:15;;;;;;;22.63;9.50;;;;;;;-1.99;64.28;99816.81;6053697;23;20456;-80
2022/11/22 00:46:41;;;;;;;18.77;9.48;;;;;;;-2.16;64.36;99800.78;6101647;23;20022;-78
2022/11/22 00:49:07;;;;;;;23.67;10.38;;;;;;;-2.06;64.86;99809.69;6102022;23;20018;-77
2022/11/22 00:51:33;;;;;;;19.58;9.55;;;;;;;-1.90;64.55;99813.75;6102473;23;20022;-79
2022/11/22 00:53:59;;;;;;;21.15;10.07;;;;;;;-1.74;65.36;99809.28;6101008;23;20029;-77
2022/11/22 00:56:25;;;;;;;20.92;9.80;;;;;;;-1.94;64.42;99770.19;6053503;23;20057;-77
2022/11/22 00:58:50;;;;;;;23.08;10.77;;;;;;;-1.77;64.12;99804.06;6077648;23;20033;-79
2022/11/22 01:01:16;;;;;;;19.77;9.55;;;;;;;-2.00;63.95;99798.88;6084757;23;20025;-78
2022/11/22 01:03:43;;;;;;;15.90;7.57;;;;;;;-2.13;63.70;99793.28;6117222;23;20018;-78
2022/11/22 01:06:08;;;;;;;21.92;9.02;;;;;;;-2.40;63.87;99769.16;6105525;23;20085;-80
2022/11/22 01:08:34;;;;;;;19.75;8.65;;;;;;;-2.37;64.09;99782.88;6053157;23;20014;-77
2022/11/22 01:11:01;;;;;;;21.52;9.30;;;;;;;-2.31;65.19;99764.41;6101724;23;20037;-78
2022/11/22 01:13:28;;;;;;;24.90;9.45;;;;;;;-2.08;65.79;99749.22;6100543;23;20022;-79
2022/11/22 01:16:00;;;;;;;21.70;9.77;;;;;;;-1.93;64.83;99774.47;6100014;23;20077;-78
2022/11/22 01:18:26;;;;;;;20.25;9.50;;;;;;;-1.92;65.09;99771.13;6074593;23;20493;-82
2022/11/22 01:20:52;;;;;;;20.83;9.52;;;;;;;-2.11;64.90;99719.38;6073559;23;20010;-79
2022/11/22 01:23:18;;;;;;;17.13;8.85;;;;;;;-1.80;64.65;99758.00;6072899;23;20022;-82
2022/11/22 01:25:44;;;;;;;25.40;10.73;;;;;;;-1.68;65.25;99781.47;6071949;23;20040;-78
2022/11/22 01:28:10;;;;;;;20.58;9.10;;;;;;;-1.89;64.38;99774.69;6098163;23;20460;-80
2022/11/22 01:30:37;;;;;;;19.20;9.15;;;;;;;-1.76;64.55;99763.28;6072691;23;20045;-79
2022/11/22 01:33:03;;;;;;;20.52;9.27;;;;;;;-2.00;63.60;99707.94;6079253;23;20073;-78
2022/11/22 01:35:29;;;;;;;18.73;9.40;;;;;;;-1.64;65.28;99742.47;6120079;23;20042;-78
2022/11/22 01:37:55;;;;;;;22.15;10.45;;;;;;;-1.45;64.66;99754.28;6098283;23;20065;-79
2022/11/22 01:40:21;;;;;;;25.17;10.65;;;;;;;-1.63;63.82;99728.91;6078033;23;20053;-76
2022/11/22 01:42:54;;;;;;;23.85;13.07;;;;;;;-1.64;64.77;99741.63;6050114;23;20173;-81
2022/11/22 01:45:40;;;;;;;24.30;13.18;;;;;;;-1.68;63.83;99740.66;6099418;23;20969;-80
2022/11/22 01:48:11;;;;;;;20.85;11.60;;;;;;;-1.62;64.75;99738.31;6074410;23;20461;-81
2022/11/22 01:50:41;;;;;;;26.33;11.77;;;;;;;-1.58;65.26;99727.41;6051170;23;20469;-81
2022/11/22 01:53:18;;;;;;;22.75;11.68;;;;;;;-1.52;65.00;99726.78;6094161;23;20029;-79
2022/11/22 01:55:44;;;;;;;24.70;11.20;;;;;;;-1.38;65.53;99719.66;6052957;23;20105;-79
2022/11/22 01:58:13;;;;;;;19.92;8.98;;;;;;;-1.59;63.13;99720.56;6098531;23;20018;-79
2022/11/22 02:00:39;;;;;;;28.33;13.13;;;;;;;-1.65;65.59;99711.81;6052765;23;20025;-79
2022/11/22 02:03:08;;;;;;;24.20;12.55;;;;;;;-1.76;64.24;99703.75;6086775;23;20014;-80
2022/11/22 02:05:34;;;;;;;21.88;11.05;;;;;;;-1.81;65.33;99698.47;6068065;23;20009;-78
2022/11/22 02:08:18;;;;;;;24.63;11.18;;;;;;;-1.84;65.22;99686.44;6116892;23;20421;-76
2022/11/22 02:10:49;;;;;;;19.80;9.45;;;;;;;-1.77;64.63;99700.31;6096872;23;20022;-76
2022/11/22 02:13:18;;;;;;;24.67;10.45;;;;;;;-1.75;64.30;99698.69;6115578;23;20025;-77
2022/11/22 02:16:04;;;;;;;22.33;10.32;;;;;;;-2.09;65.12;99633.59;6072380;23;20015;-80
2022/11/22 02:18:34;;;;;;;23.83;10.85;;;;;;;-1.84;65.91;99649.88;6093364;23;20090;-79
2022/11/22 02:21:03;;;;;;;24.58;11.05;;;;;;;-1.64;65.62;99682.94;6092360;23;20026;-77
2022/11/22 02:23:41;;;;;;;23.08;10.57;;;;;;;-1.52;65.58;99676.63;6091930;23;20009;-77
2022/11/22 02:26:07;;;;;;;25.02;11.18;;;;;;;-1.62;65.61;99643.88;6092047;23;20035;-80
2022/11/22 02:28:36;;;;;;;21.38;10.05;;;;;;;-1.55;64.81;99666.28;6091910;23;20019;-78
2022/11/22 02:31:02;;;;;;;24.48;11.23;;;;;;;-1.50;65.89;99652.81;6068279;23;20006;-77
2022/11/22 02:33:28;;;;;;;20.25;9.95;;;;;;;-1.52;65.72;99648.53;6093552;23;20030;-75
2022/11/22 02:35:57;;;;;;;18.73;8.05;;;;;;;-1.95;63.99;99612.84;6055631;23;20026;-78
2022/11/22 02:38:26;;;;;;;22.73;10.18;;;;;;;-2.11;65.21;99599.50;6079262;23;20026;-79
2022/11/22 02:41:04;;;;;;;21.05;10.27;;;;;;;-1.72;65.77;99649.47;6049012;23;20493;-79
2022/11/22 02:43:36;;;;;;;17.80;8.32;;;;;;;-1.87;65.28;99609.78;6070138;23;20018;-79
2022/11/22 02:46:08;;;;;;;18.67;8.20;;;;;;;-1.73;65.53;99642.63;6076290;23;20536;-78
2022/11/22 02:48:39;;;;;;;21.42;8.98;;;;;;;-1.89;65.10;99639.50;6077980;23;20455;-78
2022/11/22 02:51:05;;;;;;;19.77;8.52;;;;;;;-1.87;65.84;99636.97;6029609;23;20030;-78
2022/11/22 02:53:31;;;;;;;24.38;10.40;;;;;;;-1.67;66.61;99637.75;6080120;23;20478;-80
2022/11/22 02:55:57;;;;;;;22.67;10.27;;;;;;;-1.72;66.45;99616.28;6080124;23;20106;-79
2022/11/22 02:58:23;;;;;;;22.88;9.98;;;;;;;-1.60;65.32;99634.59;6054333;23;20010;-79
2022/11/22 03:00:49;;;;;;;22.45;9.50;;;;;;;-1.78;65.61;99601.63;6050577;23;20417;-79
2022/11/22 03:03:15;;;;;;;20.77;8.90;;;;;;;-1.65;66.82;99608.03;6046143;23;20019;-79
2022/11/22 03:05:42;;;;;;;24.35;9.48;;;;;;;-1.76;66.24;99588.91;6044781;23;20050;-79
2022/11/22 03:08:10;;;;;;;22.95;9.38;;;;;;;-1.62;65.91;99600.50;6043773;23;20032;-79
2022/11/22 03:10:38;;;;;;;23.58;9.43;;;;;;;-1.47;67.25;99610.41;6044640;23;20089;-80
2022/11/22 03:13:03;;;;;;;22.45;8.50;;;;;;;-1.41;66.64;99617.41;6044879;23;20065;-80
2022/11/22 03:15:29;;;;;;;15.10;6.97;;;;;;;-2.16;65.67;99522.84;6045236;23;20031;-78
2022/11/22 03:18:00;;;;;;;21.58;9.25;;;;;;;-2.30;66.42;99513.78;6001558;23;20014;-79
2022/11/22 03:20:27;;;;;;;18.92;8.52;;;;;;;-1.68;65.96;99597.75;6021217;23;20015;-83
2022/11/22 03:22:54;;;;;;;16.42;8.30;;;;;;;-1.79;67.49;99573.50;6021157;23;20386;-79
2022/11/22 03:25:20;;;;;;;19.48;8.57;;;;;;;-1.68;66.50;99572.22;6042814;23;20025;-78
2022/11/22 03:27:47;;;;;;;20.23;8.75;;;;;;;-1.77;66.99;99580.41;6043501;23;20041;-80
2022/11/22 03:30:14;;;;;;;20.95;8.23;;;;;;;-1.74;67.25;99577.09;6022668;23;20364;-79
2022/11/22 03:32:40;;;;;;;19.60;8.43;;;;;;;-1.72;67.37;99591.63;6048494;23;20015;-78
2022/11/22 03:35:06;;;;;;;19.30;8.95;;;;;;;-1.64;67.92;99585.97;6070439;23;20074;-78
2022/11/22 03:37:32;;;;;;;19.92;8.75;;;;;;;-2.04;66.27;99532.66;6044211;23;20098;-79
2022/11/22 03:39:58;;;;;;;20.00;8.13;;;;;;;-1.80;66.59;99584.50;6044101;23;20022;-77
2022/11/22 03:42:25;;;;;;;19.13;7.95;;;;;;;-1.72;67.35;99585.69;6021616;23;20019;-79
2022/11/22 03:44:52;;;;;;;18.25;8.27;;;;;;;-1.69;67.33;99573.88;6020374;23;20018;-79
2022/11/22 03:47:18;;;;;;;21.38;8.15;;;;;;;-1.89;67.58;99534.03;6019365;23;20022;-78
2022/11/22 03:49:44;;;;;;;22.80;10.07;;;;;;;-1.61;68.08;99569.06;6022940;23;20030;-79
2022/11/22 03:52:10;;;;;;;19.10;9.35;;;;;;;-1.57;67.89;99560.72;6055795;23;20023;-79
2022/11/22 03:54:36;;;;;;;19.20;8.20;;;;;;;-1.92;66.61;99518.59;6081968;23;20030;-78
2022/11/22 03:57:02;;;;;;;21.25;9.25;;;;;;;-2.03;67.46;99525.84;6022756;23;20037;-78
2022/11/22 03:59:28;;;;;;;17.08;7.75;;;;;;;-2.12;67.36;99528.94;6086883;23;20108;-77
2022/11/22 04:01:54;;;;;;;18.95;8.50;;;;;;;-2.13;67.50;99517.88;6065196;23;20023;-76
2022/11/22 04:04:20;;;;;;;19.80;8.18;;;;;;;-2.13;67.97;99522.97;6095532;23;20007;-78
2022/11/22 04:06:46;;;;;;;15.63;6.97;;;;;;;-1.94;67.96;99533.84;6078340;23;20061;-80
2022/11/22 04:09:13;;;;;;;21.50;8.93;;;;;;;-2.00;68.45;99513.22;6045473;23;20015;-77
2022/11/22 04:11:39;;;;;;;22.67;9.32;;;;;;;-1.84;68.84;99538.47;6070174;23;20082;-77
2022/11/22 04:16:49;;;;;;;17.08;7.65;;;;;;;-1.86;68.08;99511.19;6044099;23;20054;-78
2022/11/22 04:19:15;;;;;;;23.52;8.65;;;;;;;-1.83;67.78;99531.72;6068384;23;20106;-79
2022/11/22 04:21:42;;;;;;;18.85;8.13;;;;;;;-1.82;68.23;99519.00;6044658;23;20018;-80
2022/11/22 04:26:56;;;;;;;18.80;8.27;;;;;;;-1.94;68.36;99517.66;6070148;23;20019;-80
2022/11/22 04:29:23;;;;;;;18.13;7.63;;;;;;;-1.95;68.40;99510.81;6044123;23;20069;-78
2022/11/22 04:34:36;;;;;;;22.23;9.57;;;;;;;-1.84;69.11;99509.56;6044564;23;20027;-81
2022/11/22 04:37:02;;;;;;;22.02;8.40;;;;;;;-1.88;68.82;99521.34;6048758;23;20022;-80
2022/11/22 04:39:29;;;;;;;16.00;7.35;;;;;;;-1.99;68.55;99486.91;6049180;23;20042;-78
2022/11/22 04:44:42;;;;;;;22.88;9.07;;;;;;;-1.95;69.64;99472.56;6049446;23;20033;-80
2022/11/22 04:47:10;;;;;;;15.43;6.85;;;;;;;-1.78;69.00;99506.34;6067551;23;20077;-79
2022/11/22 04:49:37;;;;;;;18.10;7.47;;;;;;;-1.93;69.52;99487.13;6020453;23;20026;-80
2022/11/22 04:54:48;;;;;;;22.15;7.80;;;;;;;-1.82;69.63;99470.53;6024028;23;20103;-79
2022/11/22 04:57:14;;;;;;;22.42;7.68;;;;;;;-1.77;69.43;99500.44;6045299;23;20088;-80
2022/11/22 04:59:40;;;;;;;19.25;7.78;;;;;;;-1.80;69.61;99500.31;6068901;23;20052;-80
2022/11/22 05:02:06;;;;;;;18.52;7.30;;;;;;;-2.47;69.61;99396.78;6020537;23;20036;-80
2022/11/22 05:04:32;;;;;;;20.25;7.35;;;;;;;-1.88;70.15;99469.44;6020604;23;20361;-80
2022/11/22 05:06:58;;;;;;;18.70;7.97;;;;;;;-1.86;69.91;99467.81;6068523;23;20033;-78
2022/11/22 05:09:24;;;;;;;16.48;6.43;;;;;;;-1.90;69.87;99437.91;6043581;23;20015;-78
2022/11/22 05:11:50;;;;;;;19.90;7.80;;;;;;;-1.78;70.55;99460.44;6068574;23;20057;-78
2022/11/22 05:14:16;;;;;;;19.02;8.10;;;;;;;-2.11;70.54;99392.97;6069107;23;20472;-81
2022/11/22 05:16:42;;;;;;;17.80;8.40;;;;;;;-1.79;70.84;99418.75;6044619;23;20023;-79
2022/11/22 05:19:08;;;;;;;19.33;7.97;;;;;;;-1.75;70.73;99422.28;6044245;23;20018;-82
2022/11/22 05:21:36;;;;;;;16.40;6.28;;;;;;;-1.68;70.00;99426.78;6069597;23;20029;-80
2022/11/22 05:24:02;;;;;;;13.32;6.43;;;;;;;-1.62;70.22;99451.63;6043479;23;20394;-79
2022/11/22 05:26:32;;;;;;;14.88;7.00;;;;;;;-1.52;70.55;99462.22;6043658;23;20287;-78
2022/11/22 05:29:01;;;;;;;20.25;7.00;;;;;;;-1.65;70.54;99433.66;6057939;23;19999;-78
2022/11/22 05:31:27;;;;;;;17.48;7.60;;;;;;;-1.52;71.14;99451.13;6086783;23;20026;-79
2022/11/22 05:33:56;;;;;;;21.63;7.88;;;;;;;-1.50;71.52;99435.88;6073213;23;20022;-78
2022/11/22 05:36:22;;;;;;;11.85;6.05;;;;;;;-1.44;71.16;99446.31;6044348;23;20545;-78
2022/11/22 05:38:49;;;;;;;15.65;6.65;;;;;;;-1.42;71.40;99426.78;6069971;23;20031;-82
2022/11/22 05:41:15;;;;;;;16.40;6.85;;;;;;;-1.31;71.14;99405.03;6068210;23;20106;-78
2022/11/22 05:43:42;;;;;;;18.10;7.40;;;;;;;-1.16;71.22;99416.56;6073476;23;20046;-80
2022/11/22 05:46:20;;;;;;;17.65;6.93;;;;;;;-1.13;70.74;99412.44;6078173;23;20101;-78
2022/11/22 05:48:46;;;;;;;14.52;7.32;;;;;;;-1.12;71.18;99415.84;6050269;23;20394;-79
2022/11/22 05:51:16;;;;;;;18.20;7.90;;;;;;;-1.13;71.05;99414.09;6047402;23;20030;-81
2022/11/22 05:53:44;;;;;;;18.23;6.82;;;;;;;-1.17;71.44;99394.38;6043651;23;20090;-80
2022/11/22 05:56:13;;;;;;;15.73;7.43;;;;;;;-1.20;70.78;99405.38;6043225;23;20038;-78
2022/11/22 05:58:40;;;;;;;19.25;7.60;;;;;;;-1.18;71.84;99385.88;6022041;23;20018;-80
2022/11/22 06:01:27;;;;;;;11.90;6.03;;;;;;;-1.19;71.50;99389.25;6070869;23;20053;-79
2022/11/22 06:03:53;;;;;;;16.30;6.75;;;;;;;-1.04;71.92;99398.19;6043545;23;20022;-80
2022/11/22 06:06:19;;;;;;;16.38;5.30;;;;;;;-0.92;71.63;99394.34;6044700;23;20022;-80
2022/11/22 06:08:46;;;;;;;12.68;5.63;;;;;;;-1.04;71.26;99365.00;6075132;23;20022;-79
2022/11/22 06:11:21;;;;;;;14.75;6.60;;;;;;;-1.02;71.57;99359.13;6050090;23;20026;-77
2022/11/22 06:13:49;;;;;;;11.52;5.40;;;;;;;-0.83;72.07;99390.34;6052579;23;20019;-78
2022/11/22 06:16:16;;;;;;;14.75;5.85;;;;;;;-0.89;71.50;99377.38;6045069;23;20046;-78
2022/11/22 06:18:42;;;;;;;14.18;5.88;;;;;;;-0.71;72.46;99400.06;6071345;23;20025;-80
2022/11/22 06:21:22;;;;;;;14.45;5.88;;;;;;;-0.76;72.69;99377.78;6095387;23;20019;-76
2022/11/22 06:23:49;;;;;;;10.52;4.93;;;;;;;-0.66;71.80;99398.53;6085210;23;20018;-80
2022/11/22 06:26:18;;;;;;;11.32;5.15;;;;;;;-0.82;71.90;99381.84;6093006;23;19999;-80
2022/11/22 06:28:46;;;;;;;9.50;4.80;;;;;;;-0.82;71.39;99384.41;6090735;23;20023;-79
2022/11/22 06:31:16;;;;;;;12.18;5.40;;;;;;;-0.69;72.34;99381.41;6082370;23;20022;-79
2022/11/22 06:33:44;;;;;;;16.23;6.25;;;;;;;-0.65;72.47;99367.00;6052373;23;20129;-78
2022/11/22 06:36:21;;;;;;;12.13;6.15;;;;;;;-0.62;71.99;99368.00;6096664;23;20022;-79
2022/11/22 06:38:47;;;;;;;9.88;4.65;;;;;;;-0.99;71.98;99317.47;6076652;23;20014;-80
2022/11/22 06:41:15;;;;;;;11.27;4.43;;;;;;;-0.66;72.72;99376.38;6050127;23;20105;-78
2022/11/22 06:43:43;;;;;;;12.00;4.90;;;;;;;-0.61;72.90;99362.06;6069733;23;20358;-79
2022/11/22 06:46:10;;;;;;;7.05;4.35;;;;;;;-0.72;72.43;99337.84;6092918;23;20018;-77
2022/11/22 06:48:38;;;;;;;9.65;3.88;;;;;;;-0.77;72.21;99357.28;6074692;23;20023;-79
2022/11/22 06:51:17;;;;;;;12.30;4.78;;;;;;;-0.63;72.26;99352.59;6077091;23;20100;-78
2022/11/22 06:53:46;;;;;;;8.02;4.20;;;;;;;-0.83;73.13;99306.03;6078200;23;20027;-78
2022/11/22 06:56:15;;;;;;;7.78;3.85;;;;;;;-0.41;72.65;99355.75;6028882;23;20018;-80
2022/11/22 06:58:42;;;;;;;8.95;3.80;;;;;;;-0.61;72.67;99318.59;6085488;23;20014;-77
2022/11/22 07:01:11;;;;;;;6.80;3.70;;;;;;;-0.42;73.41;99347.25;6080135;23;20026;-77
2022/11/22 07:03:41;;;;;;;7.07;3.90;;;;;;;-0.56;72.68;99344.28;6076846;23;20022;-82
2022/11/22 07:06:09;;;;;;;7.53;3.65;;;;;;;-0.69;73.68;99293.66;6076115;23;20022;-77
2022/11/22 07:08:36;;;;;;;5.57;3.42;;;;;;;-0.39;72.28;99355.00;6068680;23;20018;-78
2022/11/22 07:11:14;;;;;;;5.82;3.35;;;;;;;-0.33;73.37;99338.97;6070909;23;20058;-80
2022/11/22 07:13:44;;;;;;;7.70;3.58;;;;;;;-0.26;73.62;99337.44;6071128;23;20030;-81
2022/11/22 07:16:14;;;;;;;6.43;3.40;;;;;;;-0.23;73.93;99317.06;6052120;23;20074;-78
2022/11/22 07:18:41;;;;;;;7.10;3.60;;;;;;;-0.09;73.76;99328.50;6100281;23;20365;-78
2022/11/22 07:21:12;;;;;;;7.60;3.72;;;;;;;-0.03;73.94;99312.47;6078382;23;20019;-79
2022/11/22 07:23:42;;;;;;;7.72;3.65;;;;;;;-1.01;72.48;99161.63;6049887;23;20417;-81
2022/11/22 07:26:10;;;;;;;7.63;3.80;;;;;;;-0.33;72.52;99286.09;6079689;23;20027;-77
2022/11/22 07:28:36;;;;;;;8.18;3.85;;;;;;;-0.17;73.46;99299.31;6078578;23;20027;-78
2022/11/22 07:31:07;;;;;;;8.40;3.90;;;;;;;-0.02;73.08;99306.53;6078855;23;20451;-78
2022/11/22 07:33:34;;;;;;;10.82;4.60;;;;;;;0.20;73.00;99323.28;6078655;23;20021;-81
2022/11/22 07:36:10;;;;;;;8.30;4.07;;;;;;;0.10;72.98;99313.66;6074289;23;20015;-79
2022/11/22 07:38:36;;;;;;;10.85;4.93;;;;;;;0.17;73.48;99328.31;6073935;23;20101;-80
2022/11/22 07:41:04;;;;;;;12.30;5.20;;;;;;;0.40;73.67;99330.59;6078836;23;20019;-77
2022/11/22 07:43:30;;;;;;;10.02;4.57;;;;;;;0.40;73.50;99313.56;6090495;23;20014;-78
2022/11/22 07:46:00;;;;;;;6.70;3.72;;;;;;;0.37;72.82;99313.47;6051036;23;20018;-78
2022/11/22 07:48:27;;;;;;;9.05;4.07;;;;;;;0.43;73.61;99307.63;6075523;23;20120;-81
2022/11/22 07:50:53;;;;;;;8.82;4.30;;;;;;;0.20;72.78;99269.53;6083344;23;20469;-80
2022/11/22 07:53:19;;;;;;;8.00;4.18;;;;;;;0.41;72.76;99289.69;6090219;23;20019;-80
2022/11/22 07:55:46;;;;;;;8.07;4.47;;;;;;;0.50;73.46;99303.53;6113817;23;19998;-78
2022/11/22 07:58:13;;;;;;;7.63;4.13;;;;;;;0.11;72.56;99262.50;6066128;23;20018;-81
2022/11/22 08:00:40;;;;;;;7.82;3.78;;;;;;;0.19;74.15;99269.53;6073902;23;20015;-80
2022/11/22 08:03:07;;;;;;;7.20;3.97;;;;;;;0.48;72.93;99306.06;6075046;23;20011;-79
2022/11/22 08:05:32;;;;;;;7.10;3.83;;;;;;;0.35;72.92;99291.22;6049597;23;20018;-81
2022/11/22 08:07:59;;;;;;;9.50;4.15;;;;;;;0.33;73.39;99262.19;6075888;23;20092;-80
2022/11/22 08:10:24;;;;;;;7.43;3.60;;;;;;;0.17;73.12;99251.56;6049162;23;20106;-79
2022/11/22 08:12:50;;;;;;;7.85;3.55;;;;;;;0.47;72.48;99309.44;6074563;23;20135;-78
2022/11/22 08:15:17;;;;;;;5.97;3.22;;;;;;;0.50;73.54;99312.09;6075653;23;20022;-80
2022/11/22 08:17:44;;;;;;;8.30;4.10;;;;;;;0.38;73.85;99270.81;6053937;23;20363;-80
2022/11/22 08:20:11;;;;;;;6.70;3.72;;;;;;;0.71;73.54;99306.59;6025947;23;20019;-84
2022/11/22 08:22:39;;;;;;;9.27;4.30;;;;;;;0.59;73.31;99293.50;6050218;23;20019;-80
2022/11/22 08:25:11;;;;;;;8.77;4.32;;;;;;;0.16;73.25;99231.06;6076361;23;20109;-81
2022/11/22 08:27:40;;;;;;;9.75;5.20;;;;;;;0.71;73.52;99308.31;6087912;23;20026;-77
2022/11/22 08:30:07;;;;;;;11.15;5.20;;;;;;;0.71;72.79;99305.72;6080767;23;20042;-78
2022/11/22 08:32:34;;;;;;;9.82;5.30;;;;;;;0.73;73.83;99307.50;6075099;23;20029;-79
2022/11/22 08:35:00;;;;;;;13.32;6.47;;;;;;;0.90;73.93;99296.75;6049366;23;20416;-79
2022/11/22 08:37:26;;;;;;;11.02;5.78;;;;;;;0.92;72.93;99296.81;6047721;23;20110;-84
2022/11/22 08:39:52;;;;;;;9.02;5.30;;;;;;;0.72;73.45;99258.81;6070917;23;20054;-78
2022/11/22 08:42:18;;;;;;;8.82;5.20;;;;;;;0.85;73.95;99285.56;6073544;23;20461;-79
2022/11/22 08:44:44;;;;;;;10.15;5.43;;;;;;;0.75;73.41;99297.28;6046891;23;20025;-81
2022/11/22 08:47:10;;;;;;;10.40;5.75;;;;;;;0.64;73.71;99268.00;6073469;23;20393;-79
2022/11/22 08:49:36;;;;;;;12.73;7.20;;;;;;;0.41;73.64;99222.25;6075619;23;20045;-78
2022/11/22 08:52:03;;;;;;;10.18;5.82;;;;;;;0.77;73.61;99267.47;6068364;23;20080;-79
2022/11/22 08:54:32;;;;;;;11.18;5.95;;;;;;;0.38;73.59;99210.25;6071058;23;19998;-81
2022/11/22 08:56:59;;;;;;;8.73;5.35;;;;;;;0.62;74.10;99231.25;6069999;23;20019;-80
2022/11/22 08:59:25;;;;;;;10.40;6.22;;;;;;;0.56;73.70;99225.16;6052200;23;20461;-78
2022/11/22 09:01:51;;;;;;;12.82;6.50;;;;;;;0.74;73.48;99245.19;6071940;23;20499;-81
2022/11/22 09:04:17;;;;;;;11.32;6.30;;;;;;;0.62;73.81;99210.75;6072129;23;20025;-78
2022/11/22 09:06:43;;;;;;;8.43;5.07;;;;;;;0.86;74.11;99239.47;6070332;23;20054;-80
2022/11/22 09:09:09;;;;;;;8.65;5.43;;;;;;;0.85;74.59;99222.38;6025604;23;20022;-80
2022/11/22 09:11:35;;;;;;;4.95;3.53;;;;;;;0.73;73.32;99181.97;6077229;23;20073;-79
2022/11/22 09:14:01;;;;;;;7.82;5.35;;;;;;;0.93;73.45;99216.53;6069805;23;20023;-81
2022/11/22 09:16:29;;;;;;;9.35;5.50;;;;;;;1.03;73.46;99239.81;6056797;23;20018;-78
2022/11/22 09:19:01;;;;;;;7.28;4.57;;;;;;;0.92;73.98;99225.06;6083458;23;20018;-81
2022/11/22 09:21:30;;;;;;;18.20;5.28;;;;;;;0.89;73.87;99201.09;6084417;23;20457;-80
2022/11/22 09:23:56;;;;;;;8.52;5.25;;;;;;;1.14;73.48;99255.44;6080969;23;20484;-81
2022/11/22 09:26:24;;;;;;;10.63;5.68;;;;;;;1.18;74.17;99258.91;6077564;23;20050;-79
2022/11/22 09:28:52;;;;;;;10.02;5.35;;;;;;;1.10;73.22;99235.69;6104710;23;20070;-76
2022/11/22 09:31:20;;;;;;;8.52;5.20;;;;;;;1.14;72.57;99250.31;6081338;23;20022;-82
2022/11/22 09:33:48;;;;;;;7.22;3.85;;;;;;;0.99;73.45;99232.06;6079782;23;20118;-81
2022/11/22 09:36:20;;;;;;;8.73;3.55;;;;;;;1.03;74.05;99197.94;6103238;23;20070;-81
2022/11/22 09:38:48;;;;;;;7.53;4.03;;;;;;;1.36;74.20;99253.28;6077334;23;20015;-83
2022/11/22 09:41:29;;;;;;;8.75;4.70;;;;;;;1.44;74.20;99249.16;6076411;23;20483;-80
2022/11/22 09:44:41;;;;;;;11.77;6.17;;;;;;;1.45;73.90;99256.03;6104774;23;20363;-83
2022/11/22 09:47:22;;;;;;;7.57;4.72;;;;;;;1.35;73.25;99241.31;6103261;23;20454;-79
2022/11/22 09:50:06;;;;;;;9.30;5.60;;;;;;;1.34;73.36;99243.00;6088923;23;20041;-81
2022/11/22 09:52:39;;;;;;;10.23;5.40;;;;;;;1.27;74.00;99205.28;6089919;23;20022;-80
2022/11/22 09:55:32;;;;;;;12.02;6.15;;;;;;;1.40;72.75;99229.44;6085627;23;20361;-81
2022/11/22 09:58:23;;;;;;;10.85;5.70;;;;;;;1.42;73.62;99247.41;6045883;23;20079;-79
2022/11/22 10:00:49;;;;;;;6.97;3.53;;;;;;;1.35;73.24;99238.75;6116051;23;20014;-82
2022/11/22 10:03:28;;;;;;;10.82;4.63;;;;;;;1.40;73.76;99233.69;6088594;23;20018;-81
2022/11/22 10:06:00;;;;;;;9.07;4.85;;;;;;;1.32;73.32;99207.91;6065170;23;20014;-80
2022/11/22 10:08:51;;;;;;;10.07;5.68;;;;;;;1.51;73.10;99242.47;6089335;23;20018;-77
2022/11/22 10:11:34;;;;;;;12.35;5.47;;;;;;;1.41;73.59;99207.22;6115206;23;20018;-82
2022/11/22 10:14:47;;;;;;;11.52;5.82;;;;;;;1.50;73.55;99213.38;6091148;23;20022;-78
2022/11/22 10:17:55;;;;;;;7.88;4.53;;;;;;;0.87;72.44;99115.66;6112931;23;20021;-81
2022/11/22 10:20:38;;;;;;;12.18;6.93;;;;;;;1.44;73.61;99230.34;6105937;23;20026;-80
2022/11/22 10:23:23;;;;;;;12.95;6.88;;;;;;;1.53;73.46;99227.09;6053934;23;20018;-81
2022/11/22 10:26:11;;;;;;;11.60;7.63;;;;;;;1.49;73.46;99224.47;6078361;23;20019;-82
2022/11/22 10:28:55;;;;;;;15.43;7.97;;;;;;;1.53;73.48;99204.03;6073446;23;20037;-80
2022/11/22 10:31:30;;;;;;;12.05;6.85;;;;;;;1.31;73.73;99171.19;6099898;23;20085;-78
2022/11/22 10:34:17;;;;;;;12.65;6.38;;;;;;;1.47;72.75;99218.44;6086926;23;20018;-82
2022/11/22 10:36:54;;;;;;;11.95;5.57;;;;;;;1.41;73.22;99220.91;6100926;23;20026;-78
2022/11/22 10:39:48;;;;;;;13.98;6.00;;;;;;;1.15;73.30;99197.31;6075832;23;20093;-79
2022/11/22 10:42:35;;;;;;;9.05;5.72;;;;;;;1.31;73.86;99188.25;6050125;23;20025;-78
2022/11/22 10:45:25;;;;;;;10.27;5.90;;;;;;;1.50;74.31;99205.69;6103097;23;21068;-81
2022/11/22 10:48:20;;;;;;;11.10;5.97;;;;;;;1.53;73.85;99206.59;6072755;23;20015;-78
2022/11/22 10:51:14;;;;;;;10.82;5.70;;;;;;;1.55;73.86;99187.81;6099742;23;20050;-81
2022/11/22 10:53:46;;;;;;;9.73;5.43;;;;;;;1.52;74.00;99167.25;6076226;23;20014;-78
2022/11/22 10:56:24;;;;;;;12.48;5.68;;;;;;;1.64;73.75;99194.84;6102344;23;20042;-81
2022/11/22 10:59:28;;;;;;;10.15;5.93;;;;;;;1.49;73.51;99175.75;6076165;23;20109;-77
2022/11/22 11:02:26;;;;;;;10.02;5.60;;;;;;;1.62;73.63;99199.06;6074454;23;20029;-78
2022/11/22 11:04:58;;;;;;;14.23;6.13;;;;;;;1.73;73.90;99182.16;6073046;23;20014;-82
2022/11/22 11:07:30;;;;;;;14.45;7.30;;;;;;;1.57;74.07;99150.22;6072183;23;20014;-79
2022/11/22 11:10:03;;;;;;;16.58;8.10;;;;;;;1.55;73.58;99162.16;6100934;23;20015;-82
2022/11/22 11:13:01;;;;;;;15.88;7.03;;;;;;;1.54;72.67;99169.84;6074064;23;20046;-80
2022/11/22 11:15:49;;;;;;;12.52;6.18;;;;;;;1.49;73.76;99168.06;6073623;23;20498;-80
2022/11/22 11:18:31;;;;;;;6.53;3.97;;;;;;;1.53;73.40;99179.25;6097862;23;20018;-78
2022/11/22 11:20:57;;;;;;;7.97;4.38;;;;;;;0.97;74.04;99096.22;6097698;23;20003;-82
2022/11/22 11:23:23;;;;;;;9.32;4.68;;;;;;;1.41;73.29;99179.00;6098153;23;20013;-82
2022/11/22 11:25:51;;;;;;;9.05;5.50;;;;;;;0.89;73.68;99100.31;6068430;23;20029;-77
2022/11/22 11:28:22;;;;;;;12.65;6.68;;;;;;;1.34;73.92;99166.06;6105292;23;20023;-79
2022/11/22 11:31:06;;;;;;;10.02;6.03;;;;;;;1.46;74.33;99172.28;6099346;23;20029;-82
2022/11/22 11:33:37;;;;;;;10.63;6.57;;;;;;;1.30;74.88;99124.97;6074686;23;20046;-85
2022/11/22 11:36:13;;;;;;;11.57;7.13;;;;;;;1.44;74.47;99161.97;6099715;23;20025;-80
2022/11/22 11:38:39;;;;;;;11.63;6.65;;;;;;;1.52;74.43;99167.25;6098720;23;20021;-82
2022/11/22 11:41:35;;;;;;;15.30;6.38;;;;;;;1.22;73.88;99111.16;6049603;23;20476;-81
2022/11/22 11:44:04;;;;;;;8.48;5.05;;;;;;;1.54;73.81;99165.59;6091006;23;20049;-81
2022/11/22 11:46:39;;;;;;;11.60;5.63;;;;;;;1.65;74.51;99183.75;6073096;23;20030;-81
2022/11/22 11:49:16;;;;;;;7.65;4.63;;;;;;;1.58;73.70;99169.06;6049756;23;20034;-80
2022/11/22 11:51:44;;;;;;;12.27;6.20;;;;;;;1.61;73.96;99164.00;6072965;23;20414;-78
2022/11/22 11:54:37;;;;;;;9.23;4.97;;;;;;;1.67;74.24;99168.34;6098130;23;20515;-78
2022/11/22 11:57:35;;;;;;;9.75;5.18;;;;;;;1.69;74.59;99175.22;6075771;23;20045;-77